Time;durP1;ratioP1;P1;durP2;ratioP2;P2;SDS_P1;SDS_P2;PMS_P1;PMS_P2;Temp;Humidity;BMP_temperature;BMP_pressure;BME280_temperature;BME280_humidity;BME280_pressure;Samples;Min_cycle;Max_cycle;Signal;HPM_P1;HPM_P2
2022/07/25 00:01:55;;;;;;;7.10;6.40;;;21.50;99.90;;;;;;5035785;28;20107;-57
2022/07/25 00:04:22;;;;;;;5.85;5.13;;;21.40;99.90;;;;;;5034882;28;20038;-57
2022/07/25 00:06:48;;;;;;;6.18;5.68;;;21.40;99.90;;;;;;5039155;28;20433;-56
2022/07/25 00:09:13;;;;;;;6.97;5.97;;;21.40;99.90;;;;;;5035680;28;20045;-58
2022/07/25 00:11:39;;;;;;;6.93;6.32;;;21.40;99.90;;;;;;5033542;28;20037;-55
2022/07/25 00:14:05;;;;;;;6.75;6.15;;;21.40;99.90;;;;;;5036121;28;20629;-57
2022/07/25 00:16:31;;;;;;;6.82;6.13;;;21.30;99.90;;;;;;5037980;28;20048;-56
2022/07/25 00:18:56;;;;;;;6.15;5.55;;;21.30;99.90;;;;;;5047504;28;20033;-56
2022/07/25 00:21:22;;;;;;;7.47;6.70;;;21.30;99.90;;;;;;5035145;28;20140;-57
2022/07/25 00:23:48;;;;;;;8.32;6.95;;;21.30;99.90;;;;;;5044839;28;20403;-57
2022/07/25 00:26:13;;;;;;;7.85;7.00;;;21.30;99.90;;;;;;5039351;28;20041;-58
2022/07/25 00:28:39;;;;;;;8.07;7.38;;;21.20;99.90;;;;;;5032370;28;20033;-57
2022/07/25 00:31:04;;;;;;;8.50;7.70;;;21.20;99.90;;;;;;5032496;28;20075;-58
2022/07/25 00:33:31;;;;;;;8.63;7.72;;;21.20;99.90;;;;;;5034003;28;20103;-57
2022/07/25 00:35:56;;;;;;;9.18;8.32;;;21.10;99.90;;;;;;5031720;28;20090;-57
2022/07/25 00:38:22;;;;;;;9.05;8.25;;;21.10;99.90;;;;;;5036695;28;20042;-58
2022/07/25 00:40:48;;;;;;;8.55;7.85;;;21.10;99.90;;;;;;5034354;28;20106;-58
2022/07/25 00:43:13;;;;;;;8.95;8.02;;;21.10;99.90;;;;;;5035469;28;20037;-58
2022/07/25 00:45:39;;;;;;;9.05;8.30;;;21.10;99.90;;;;;;5040786;28;20044;-58
2022/07/25 00:48:07;;;;;;;8.52;7.72;;;21.10;99.90;;;;;;5044287;28;20120;-58
2022/07/25 00:50:32;;;;;;;;;;;21.10;99.90;;;;;;5037303;28;20041;-58
2022/07/25 00:52:58;;;;;;;8.30;7.63;;;21.10;99.90;;;;;;5033868;28;19929;-57
2022/07/25 00:55:24;;;;;;;8.73;7.93;;;21.10;99.90;;;;;;5034774;28;20065;-57
2022/07/25 00:57:50;;;;;;;10.40;8.05;;;21.00;99.90;;;;;;5034399;28;20068;-57
2022/07/25 01:00:16;;;;;;;8.90;8.02;;;21.10;99.90;;;;;;5035750;28;20057;-57
2022/07/25 01:02:43;;;;;;;8.65;7.85;;;21.00;99.90;;;;;;5034273;28;20103;-57
2022/07/25 01:05:09;;;;;;;9.60;8.70;;;21.00;99.90;;;;;;5035960;28;20543;-58
2022/07/25 01:07:36;;;;;;;9.73;8.70;;;21.00;99.90;;;;;;5036794;28;20046;-58
2022/07/25 01:10:02;;;;;;;9.55;8.63;;;21.00;99.90;;;;;;5003145;28;20052;-57
2022/07/25 01:12:28;;;;;;;9.45;8.52;;;21.00;99.90;;;;;;5035338;28;20057;-57
2022/07/25 01:14:54;;;;;;;11.27;9.02;;;20.90;99.90;;;;;;5034803;28;20064;-57
2022/07/25 01:17:19;;;;;;;9.52;8.50;;;20.90;99.90;;;;;;5034649;28;20041;-57
2022/07/25 01:19:46;;;;;;;9.63;8.60;;;20.90;99.90;;;;;;5029878;28;21615;-57
2022/07/25 01:22:11;;;;;;;10.13;9.13;;;20.90;99.90;;;;;;5035045;28;20130;-55
2022/07/25 01:24:38;;;;;;;9.60;8.65;;;20.90;99.90;;;;;;5033614;28;20131;-57
2022/07/25 01:27:04;;;;;;;9.63;8.82;;;20.80;99.90;;;;;;5032519;28;20101;-56
2022/07/25 01:29:29;;;;;;;9.35;8.40;;;20.80;99.90;;;;;;5036444;28;20123;-57
2022/07/25 01:31:55;;;;;;;10.38;9.48;;;20.80;99.90;;;;;;5033865;28;20132;-56
2022/07/25 01:34:21;;;;;;;10.70;9.63;;;20.70;99.90;;;;;;5037872;28;20052;-57
2022/07/25 01:36:46;;;;;;;10.80;9.70;;;20.70;99.90;;;;;;5034912;28;20047;-58
2022/07/25 01:39:12;;;;;;;10.73;9.55;;;20.70;99.90;;;;;;5031990;28;20491;-56
2022/07/25 01:41:37;;;;;;;10.60;9.48;;;20.60;99.90;;;;;;5033852;28;20049;-58
2022/07/25 01:44:03;;;;;;;12.07;10.10;;;20.60;99.90;;;;;;5029866;28;20408;-58
2022/07/25 01:46:29;;;;;;;11.02;10.02;;;20.60;99.90;;;;;;5036633;28;20123;-58
2022/07/25 01:48:54;;;;;;;12.27;11.18;;;20.50;99.90;;;;;;5035507;28;20411;-56
2022/07/25 01:51:20;;;;;;;11.70;10.60;;;20.50;99.90;;;;;;5036282;28;20124;-55
2022/07/25 01:53:46;;;;;;;11.45;10.43;;;;;;;;;;5042898;28;20080;-57
2022/07/25 01:56:12;;;;;;;12.30;11.10;;;20.40;99.90;;;;;;5037030;28;20044;-57
2022/07/25 01:58:37;;;;;;;12.65;11.27;;;20.40;99.90;;;;;;5034714;28;20040;-58
2022/07/25 02:01:03;;;;;;;12.93;11.82;;;20.40;99.90;;;;;;5032612;28;20088;-58
2022/07/25 02:03:28;;;;;;;13.15;11.82;;;20.30;99.90;;;;;;5032787;28;20045;-57
2022/07/25 02:05:55;;;;;;;11.40;10.40;;;20.30;99.90;;;;;;5034298;28;20308;-58
2022/07/25 02:08:22;;;;;;;12.90;11.80;;;20.30;99.90;;;;;;5033458;28;20083;-55
2022/07/25 02:10:47;;;;;;;13.60;12.02;;;20.30;99.90;;;;;;5028210;28;20057;-56
2022/07/25 02:13:13;;;;;;;12.95;11.75;;;20.30;99.90;;;;;;5032017;28;20053;-57
2022/07/25 02:15:39;;;;;;;13.00;11.80;;;20.20;99.90;;;;;;5031949;28;20045;-57
2022/07/25 02:18:04;;;;;;;13.85;12.45;;;20.20;99.90;;;;;;5017567;28;20049;-57
2022/07/25 02:20:30;;;;;;;14.30;12.40;;;20.20;99.90;;;;;;5035014;28;20135;-57
2022/07/25 02:22:55;;;;;;;13.38;12.10;;;20.20;99.90;;;;;;5033167;28;20045;-58
2022/07/25 02:25:21;;;;;;;14.20;12.55;;;20.10;99.90;;;;;;5035353;28;20045;-57
2022/07/25 02:27:47;;;;;;;13.70;12.27;;;20.10;99.90;;;;;;5016018;28;20073;-57
2022/07/25 02:30:12;;;;;;;14.18;12.38;;;20.10;99.90;;;;;;5030498;28;20033;-57
2022/07/25 02:32:38;;;;;;;13.98;12.65;;;20.10;99.90;;;;;;5030671;28;20091;-57
2022/07/25 02:35:05;;;;;;;14.98;12.45;;;20.10;99.90;;;;;;5028927;28;20037;-57
2022/07/25 02:37:31;;;;;;;13.35;11.95;;;20.00;99.90;;;;;;5036356;28;20051;-56
2022/07/25 02:39:57;;;;;;;13.68;12.35;;;20.00;99.90;;;;;;5079727;22;20405;-47
2022/07/25 02:42:22;;;;;;;13.30;11.48;;;20.00;99.90;;;;;;5059046;28;20049;-48
2022/07/25 02:44:48;;;;;;;13.07;11.88;;;20.00;99.90;;;;;;5056414;28;20059;-50
2022/07/25 02:47:14;;;;;;;13.35;12.05;;;20.00;99.90;;;;;;5058933;28;20042;-48
2022/07/25 02:49:39;;;;;;;13.68;12.38;;;20.00;99.90;;;;;;5055699;28;20509;-49
2022/07/25 02:52:05;;;;;;;13.80;12.50;;;20.00;99.90;;;;;;5059925;28;20048;-47
2022/07/25 02:54:30;;;;;;;14.95;12.45;;;20.00;99.90;;;;;;5062430;28;20068;-49
2022/07/25 02:56:56;;;;;;;13.73;12.52;;;19.90;99.90;;;;;;5058595;28;20048;-50
2022/07/25 02:59:21;;;;;;;14.07;12.57;;;19.90;99.90;;;;;;5061489;28;20102;-47
2022/07/25 03:01:47;;;;;;;13.73;12.45;;;20.00;99.90;;;;;;5061952;28;20036;-47
2022/07/25 03:04:12;;;;;;;12.98;11.68;;;19.90;99.90;;;;;;5064197;28;20440;-48
2022/07/25 03:06:38;;;;;;;13.10;11.75;;;19.90;99.90;;;;;;5062539;28;20094;-48
2022/07/25 03:09:04;;;;;;;13.63;12.18;;;19.90;99.90;;;;;;5062063;28;20519;-48
2022/07/25 03:11:29;;;;;;;13.32;12.13;;;19.90;99.90;;;;;;5061701;28;20037;-49
2022/07/25 03:13:55;;;;;;;13.40;12.07;;;19.90;99.90;;;;;;5062914;28;20049;-48
2022/07/25 03:16:20;;;;;;;13.68;11.88;;;19.90;99.90;;;;;;5063957;28;20041;-47
2022/07/25 03:18:46;;;;;;;12.40;11.07;;;19.90;99.90;;;;;;5062579;28;20040;-50
2022/07/25 03:21:11;;;;;;;12.55;11.45;;;19.90;99.90;;;;;;5062212;28;20421;-51
2022/07/25 03:23:37;;;;;;;12.73;11.52;;;19.90;99.90;;;;;;5060394;28;20075;-49
2022/07/25 03:26:03;;;;;;;12.00;10.90;;;19.90;99.90;;;;;;5058092;28;20037;-50
2022/07/25 03:28:29;;;;;;;12.40;11.20;;;19.90;99.90;;;;;;5064804;28;20032;-51
2022/07/25 03:30:54;;;;;;;11.48;10.48;;;19.80;99.90;;;;;;5060253;28;20041;-53
2022/07/25 03:33:20;;;;;;;12.35;11.07;;;19.80;99.90;;;;;;5062828;28;20479;-53
2022/07/25 03:35:45;;;;;;;12.18;10.70;;;19.90;99.90;;;;;;5057024;28;20118;-51
2022/07/25 03:38:11;;;;;;;11.00;10.00;;;19.90;99.90;;;;;;5064633;28;20033;-50
2022/07/25 03:40:37;;;;;;;11.65;10.65;;;19.90;99.90;;;;;;5065215;28;20051;-49
2022/07/25 03:43:03;;;;;;;11.25;9.98;;;19.90;99.90;;;;;;5061780;28;20040;-50
2022/07/25 03:45:29;;;;;;;11.45;10.35;;;19.80;99.90;;;;;;5062202;28;20036;-52
2022/07/25 03:47:54;;;;;;;10.90;9.80;;;19.90;99.90;;;;;;5064245;28;20373;-47
2022/07/25 03:50:20;;;;;;;10.82;9.88;;;19.90;99.90;;;;;;5064067;28;20063;-47
2022/07/25 03:52:46;;;;;;;11.63;10.43;;;19.90;99.90;;;;;;5066080;28;20136;-49
2022/07/25 03:55:11;;;;;;;12.50;10.75;;;19.90;99.90;;;;;;5062732;28;20161;-50
2022/07/25 03:57:38;;;;;;;11.75;10.40;;;19.90;99.90;;;;;;5061079;28;20070;-47
2022/07/25 04:00:06;;;;;;;11.52;9.88;;;19.90;99.90;;;;;;5063908;28;20040;-47
2022/07/25 04:02:32;;;;;;;10.73;9.68;;;20.00;99.90;;;;;;5063633;28;20045;-49
2022/07/25 04:04:57;;;;;;;11.85;10.68;;;20.00;99.90;;;;;;5055067;28;20090;-50
2022/07/25 04:07:23;;;;;;;12.88;10.82;;;20.00;99.90;;;;;;5054364;28;21054;-49
2022/07/25 04:09:48;;;;;;;11.55;10.45;;;20.10;99.90;;;;;;5059676;28;20050;-47
2022/07/25 04:12:14;;;;;;;14.35;11.10;;;20.10;99.90;;;;;;5061102;28;20040;-51
2022/07/25 04:14:39;;;;;;;12.98;11.57;;;20.20;99.90;;;;;;5062941;28;20144;-49
2022/07/25 04:17:05;;;;;;;12.60;11.35;;;20.20;99.90;;;;;;5060067;28;20063;-49
2022/07/25 04:19:30;;;;;;;12.82;10.80;;;20.20;99.90;;;;;;5059238;28;20036;-50
2022/07/25 04:21:56;;;;;;;11.77;10.68;;;20.30;99.90;;;;;;5058953;28;20127;-47
2022/07/25 04:24:22;;;;;;;13.27;11.43;;;20.30;99.90;;;;;;5057832;28;20474;-48
2022/07/25 04:26:48;;;;;;;14.68;11.27;;;;;;;;;;5060412;28;20041;-49
2022/07/25 04:29:13;;;;;;;12.98;11.25;;;20.40;99.90;;;;;;5065964;28;20051;-48
2022/07/25 04:31:39;;;;;;;13.40;12.05;;;20.50;99.90;;;;;;5038440;28;20041;-51
2022/07/25 04:34:05;;;;;;;13.13;11.75;;;20.60;99.90;;;;;;5057245;28;20045;-48
2022/07/25 04:36:30;;;;;;;13.43;11.32;;;20.70;99.90;;;;;;5060138;28;20074;-51
2022/07/25 04:38:56;;;;;;;14.15;10.98;;;20.80;99.90;;;;;;5060590;28;20449;-53
2022/07/25 04:41:21;;;;;;;12.35;11.15;;;21.00;99.90;;;;;;5056404;28;20049;-50
2022/07/25 04:43:47;;;;;;;13.38;11.95;;;21.10;99.90;;;;;;5058371;28;20037;-52
2022/07/25 04:46:20;;;;;;;17.27;11.60;;;21.20;99.90;;;;;;5057314;28;20093;-48
2022/07/25 04:48:45;;;;;;;12.77;10.95;;;21.50;99.90;;;;;;5059475;28;20377;-47
2022/07/25 04:51:11;;;;;;;12.13;10.93;;;21.60;99.90;;;;;;5055929;28;20054;-48
2022/07/25 04:53:36;;;;;;;14.35;10.93;;;22.10;99.90;;;;;;5058894;28;21711;-50
2022/07/25 04:56:02;;;;;;;12.32;11.00;;;22.50;99.90;;;;;;5060255;28;20041;-52
2022/07/25 04:58:28;;;;;;;12.18;10.98;;;22.60;99.90;;;;;;5066008;28;20071;-49
2022/07/25 05:00:53;;;;;;;12.02;10.93;;;22.60;99.90;;;;;;5059866;28;20046;-50
2022/07/25 05:03:19;;;;;;;11.52;10.43;;;22.70;99.90;;;;;;5061521;28;20076;-49
2022/07/25 05:05:44;;;;;;;11.55;10.30;;;22.80;99.90;;;;;;5060942;28;20047;-51
2022/07/25 05:08:10;;;;;;;11.70;10.68;;;23.20;99.90;;;;;;5056840;28;20503;-52
2022/07/25 05:10:35;;;;;;;11.48;10.32;;;23.40;99.90;;;;;;5063066;28;20051;-47
2022/07/25 05:13:02;;;;;;;11.50;10.30;;;23.50;99.90;;;;;;5060888;28;20127;-48
2022/07/25 05:15:28;;;;;;;11.77;10.13;;;23.70;99.90;;;;;;5058018;28;20542;-50
2022/07/25 05:17:53;;;;;;;10.95;9.85;;;24.10;99.90;;;;;;5061011;28;20048;-50
2022/07/25 05:20:19;;;;;;;11.48;10.35;;;24.20;99.90;;;;;;5042760;28;20495;-48
2022/07/25 05:22:44;;;;;;;14.85;10.85;;;24.50;99.90;;;;;;5059512;28;20041;-48
2022/07/25 05:25:11;;;;;;;11.63;10.05;;;25.00;99.90;;;;;;5056736;28;20044;-47
2022/07/25 05:27:37;;;;;;;11.00;9.77;;;25.10;99.90;;;;;;5060142;28;20041;-51
2022/07/25 05:30:06;;;;;;;11.25;10.10;;;26.00;99.90;;;;;;5058888;28;20044;-53
2022/07/25 05:32:32;;;;;;;11.40;10.18;;;26.70;99.90;;;;;;5059484;28;20044;-50
2022/07/25 05:34:58;;;;;;;10.65;9.55;;;27.30;99.90;;;;;;5059637;28;20093;-54
2022/07/25 05:37:23;;;;;;;12.15;9.85;;;28.10;99.90;;;;;;5058105;28;20415;-48
2022/07/25 05:39:49;;;;;;;10.35;9.13;;;29.10;99.90;;;;;;5058838;28;20479;-52
2022/07/25 05:42:14;;;;;;;9.93;8.75;;;29.30;99.90;;;;;;5058145;28;20543;-50
2022/07/25 05:44:40;;;;;;;10.27;9.20;;;29.00;99.90;;;;;;5055804;28;20555;-52
2022/07/25 05:47:09;;;;;;;10.95;9.25;;;29.60;99.90;;;;;;5056149;28;20049;-52
2022/07/25 05:49:35;;;;;;;10.35;9.20;;;29.70;98.00;;;;;;5059043;28;20048;-51
2022/07/25 05:52:01;;;;;;;10.05;9.05;;;29.30;97.10;;;;;;5060947;28;20045;-52
2022/07/25 05:54:27;;;;;;;10.65;9.25;;;;;;;;;;5058642;28;20044;-53
2022/07/25 05:56:53;;;;;;;10.43;9.30;;;28.60;96.30;;;;;;5057924;28;20040;-52
2022/07/25 05:59:18;;;;;;;11.75;10.55;;;28.00;97.90;;;;;;5056893;28;20135;-51
2022/07/25 06:01:44;;;;;;;10.70;9.60;;;27.80;97.90;;;;;;5057460;28;20048;-53
2022/07/25 06:04:09;;;;;;;11.35;10.15;;;28.10;97.40;;;;;;5059662;28;20029;-53
2022/07/25 06:06:35;;;;;;;10.60;9.60;;;28.20;97.50;;;;;;5062667;28;20501;-52
2022/07/25 06:09:01;;;;;;;12.35;9.60;;;28.40;97.80;;;;;;5061044;28;21885;-52
2022/07/25 06:11:27;;;;;;;10.18;9.27;;;28.60;97.70;;;;;;5059198;28;20059;-51
2022/07/25 06:13:53;;;;;;;10.03;9.10;;;28.40;97.20;;;;;;5057020;28;20056;-52
2022/07/25 06:16:19;;;;;;;9.63;8.82;;;28.80;97.40;;;;;;5059224;28;20511;-48
2022/07/25 06:18:44;;;;;;;10.35;9.27;;;29.00;97.10;;;;;;5058927;28;20044;-50
2022/07/25 06:21:10;;;;;;;9.15;8.18;;;29.30;96.40;;;;;;5058660;28;20047;-52
2022/07/25 06:23:35;;;;;;;10.43;8.30;;;30.10;96.50;;;;;;5060319;28;20389;-52
2022/07/25 06:26:01;;;;;;;9.52;8.57;;;30.80;96.70;;;;;;5056586;28;20064;-53
2022/07/25 06:28:27;;;;;;;9.25;8.23;;;31.10;95.40;;;;;;5055609;28;20075;-51
2022/07/25 06:30:53;;;;;;;11.15;8.77;;;30.80;93.90;;;;;;5056248;28;20079;-51
2022/07/25 06:33:18;;;;;;;10.15;8.73;;;30.70;93.80;;;;;;5059047;28;20040;-53
2022/07/25 06:35:44;;;;;;;9.15;8.18;;;31.00;93.70;;;;;;5057514;28;20055;-53
2022/07/25 06:38:10;;;;;;;8.43;7.65;;;31.70;93.80;;;;;;5055526;28;20036;-52
2022/07/25 06:40:35;;;;;;;8.30;7.50;;;31.80;91.90;;;;;;5058471;28;20468;-52
2022/07/25 06:43:01;;;;;;;8.80;8.00;;;32.20;92.20;;;;;;5056359;28;20049;-51
2022/07/25 06:45:26;;;;;;;17.85;8.20;;;32.40;91.20;;;;;;5055181;28;20395;-52
2022/07/25 06:47:52;;;;;;;10.10;9.02;;;32.50;91.00;;;;;;5060811;28;20079;-53
2022/07/25 06:50:19;;;;;;;8.82;8.02;;;32.00;89.20;;;;;;5058545;28;20205;-53
2022/07/25 06:52:45;;;;;;;9.88;8.38;;;32.80;89.80;;;;;;5057555;28;20814;-53
2022/07/25 06:55:13;;;;;;;9.65;8.70;;;32.90;87.20;;;;;;5054109;28;20619;-53
2022/07/25 06:57:40;;;;;;;9.38;8.52;;;33.10;84.90;;;;;;5053684;28;20056;-53
2022/07/25 07:00:09;;;;;;;9.35;8.45;;;33.20;87.40;;;;;;5057521;28;20036;-54
2022/07/25 07:02:46;;;;;;;10.57;9.55;;;33.40;86.10;;;;;;5058828;28;20047;-53
2022/07/25 07:05:11;;;;;;;;;;;33.60;84.40;;;;;;5054800;28;20067;-53
2022/07/25 07:07:37;;;;;;;9.27;8.03;;;34.00;85.80;;;;;;5060860;28;19920;-50
2022/07/25 07:10:03;;;;;;;9.60;8.20;;;34.30;84.40;;;;;;5064107;28;20041;-50
2022/07/25 07:12:28;;;;;;;11.00;8.48;;;34.30;83.30;;;;;;5056241;28;20129;-53
2022/07/25 07:14:54;;;;;;;12.33;9.07;;;34.40;82.20;;;;;;5057996;28;20481;-51
2022/07/25 07:17:19;;;;;;;10.80;9.37;;;34.60;81.60;;;;;;5060761;28;20767;-50
2022/07/25 07:19:45;;;;;;;9.70;8.60;;;34.70;81.20;;;;;;5062589;28;20041;-51
2022/07/25 07:22:11;;;;;;;9.70;8.83;;;34.80;80.60;;;;;;5060714;28;20067;-51
2022/07/25 07:24:36;;;;;;;13.07;9.57;;;34.80;79.70;;;;;;5062462;28;20037;-51
2022/07/25 07:27:02;;;;;;;9.23;8.27;;;34.90;79.10;;;;;;5054573;28;20048;-50
2022/07/25 07:29:28;;;;;;;9.53;8.53;;;34.60;79.20;;;;;;5062071;28;20498;-50
2022/07/25 07:31:53;;;;;;;9.77;8.07;;;34.70;79.40;;;;;;5065304;28;20040;-50
2022/07/25 07:34:19;;;;;;;9.80;8.90;;;34.80;79.80;;;;;;5070223;28;20402;-50
2022/07/25 07:36:45;;;;;;;9.70;7.80;;;34.40;77.80;;;;;;5064295;28;20098;-49
2022/07/25 07:39:10;;;;;;;9.10;8.20;;;34.50;79.20;;;;;;5064360;28;20045;-53
2022/07/25 07:41:36;;;;;;;8.50;7.60;;;34.30;77.60;;;;;;5060781;28;20048;-51
2022/07/25 07:44:02;;;;;;;8.63;7.70;;;34.50;79.10;;;;;;5062293;28;20045;-48
2022/07/25 07:46:27;;;;;;;10.90;7.80;;;33.70;78.70;;;;;;5067445;28;20094;-51
2022/07/25 07:48:53;;;;;;;11.97;7.70;;;33.10;79.80;;;;;;5066488;28;20036;-50
2022/07/25 07:51:18;;;;;;;8.80;7.73;;;32.50;79.20;;;;;;5068995;28;20614;-51
2022/07/25 07:56:28;;;;;;;10.55;7.18;;;31.70;81.40;;;;;;5058814;28;20045;-50
2022/07/25 07:58:54;;;;;;;8.63;7.73;;;31.50;82.80;;;;;;5058953;28;20048;-49
2022/07/25 08:01:19;;;;;;;11.17;8.63;;;31.20;83.00;;;;;;5061817;28;20041;-50
2022/07/25 08:03:46;;;;;;;8.23;7.43;;;;;;;;;;5064507;28;20071;-50
2022/07/25 08:06:11;;;;;;;8.45;7.72;;;30.60;99.90;;;;;;5063770;28;20041;-51
2022/07/25 08:08:37;;;;;;;9.67;8.10;;;30.30;83.50;;;;;;5062085;28;20036;-50
2022/07/25 08:11:03;;;;;;;9.90;7.68;;;30.00;84.50;;;;;;5061212;28;20040;-48
2022/07/25 08:13:32;;;;;;;8.33;7.73;;;29.70;85.40;;;;;;5060165;28;20536;-51
2022/07/25 08:16:00;;;;;;;8.55;7.45;;;29.40;84.40;;;;;;5059456;28;20068;-51
2022/07/25 08:18:28;;;;;;;8.63;7.72;;;29.40;86.50;;;;;;5059073;28;20036;-51
2022/07/25 08:20:54;;;;;;;8.32;7.60;;;29.40;86.80;;;;;;5057744;28;20168;-51
2022/07/25 08:23:21;;;;;;;9.18;8.23;;;29.20;86.40;;;;;;5058814;28;20101;-50
2022/07/25 08:25:47;;;;;;;7.95;7.25;;;28.80;86.90;;;;;;5061047;28;20040;-50
2022/07/25 08:28:13;;;;;;;8.70;7.82;;;28.60;87.50;;;;;;5060625;28;20411;-51
2022/07/25 08:30:40;;;;;;;8.45;7.32;;;28.50;88.60;;;;;;5057303;28;20040;-50
2022/07/25 08:33:12;;;;;;;7.65;6.70;;;28.30;88.60;;;;;;5062492;28;20040;-50
2022/07/25 08:35:39;;;;;;;7.60;5.43;;;28.20;88.60;;;;;;5057360;28;20423;-46
2022/07/25 08:38:05;;;;;;;7.28;5.68;;;28.00;87.40;;;;;;5059774;28;20059;-51
2022/07/25 08:40:32;;;;;;;8.48;6.18;;;27.90;88.40;;;;;;5059256;28;20041;-50
2022/07/25 08:42:58;;;;;;;6.55;5.20;;;27.80;87.80;;;;;;5059065;28;20407;-50
2022/07/25 08:45:26;;;;;;;4.50;4.10;;;27.70;88.10;;;;;;5061876;28;20486;-52
2022/07/25 08:47:53;;;;;;;4.50;4.10;;;27.70;89.40;;;;;;5057437;28;20033;-54
2022/07/25 08:50:25;;;;;;;3.58;3.28;;;27.90;87.70;;;;;;5058107;28;20044;-53
2022/07/25 08:52:51;;;;;;;6.88;4.00;;;28.00;88.20;;;;;;5060365;28;21101;-48
2022/07/25 08:55:20;;;;;;;4.82;3.50;;;27.90;87.50;;;;;;5058586;28;20132;-52
2022/07/25 08:57:48;;;;;;;6.10;3.40;;;27.90;87.10;;;;;;5057948;28;20041;-49
2022/07/25 09:00:20;;;;;;;4.47;3.67;;;27.70;87.50;;;;;;5056644;28;20055;-52
2022/07/25 09:03:00;;;;;;;4.97;3.80;;;27.70;88.00;;;;;;5058856;28;20534;-51
2022/07/25 09:05:29;;;;;;;6.38;3.80;;;27.50;89.10;;;;;;5058716;28;20083;-49
2022/07/25 09:07:56;;;;;;;4.13;3.72;;;27.40;89.90;;;;;;5065438;28;20090;-51
2022/07/25 09:10:25;;;;;;;;;;;27.40;90.10;;;;;;5064559;28;20298;-49
2022/07/25 09:13:02;;;;;;;4.22;3.72;;;27.40;90.60;;;;;;5054356;28;19921;-51
2022/07/25 09:15:32;;;;;;;4.90;3.88;;;27.50;90.50;;;;;;5065508;28;20404;-48
2022/07/25 09:18:05;;;;;;;6.05;4.03;;;27.50;89.60;;;;;;5065104;28;20127;-53
2022/07/25 09:20:42;;;;;;;4.05;3.63;;;27.40;89.90;;;;;;5064569;28;20055;-49
2022/07/25 09:23:08;;;;;;;;;;;27.20;89.90;;;;;;5063463;28;20041;-50
2022/07/25 09:25:35;;;;;;;9.90;3.85;;;27.10;90.00;;;;;;5045631;28;19998;-48
2022/07/25 09:28:17;;;;;;;5.72;3.90;;;27.00;90.90;;;;;;5061688;28;20072;-52
2022/07/25 09:31:00;;;;;;;4.10;3.60;;;26.90;91.00;;;;;;5063004;28;20032;-51
2022/07/25 09:33:27;;;;;;;4.72;3.65;;;26.80;90.90;;;;;;5064988;28;20115;-50
2022/07/25 09:35:54;;;;;;;4.88;3.60;;;26.70;91.30;;;;;;5064592;28;20076;-50
2022/07/25 09:38:21;;;;;;;5.05;3.97;;;27.00;91.60;;;;;;5062498;28;20048;-49
2022/07/25 09:41:16;;;;;;;7.20;4.25;;;27.30;91.50;;;;;;5060246;28;21995;-49
2022/07/25 09:43:43;;;;;;;11.23;4.38;;;27.70;91.10;;;;;;5048666;28;20037;-49
2022/07/25 09:46:10;;;;;;;4.97;3.72;;;28.30;91.00;;;;;;5060257;28;20052;-50
2022/07/25 09:48:38;;;;;;;4.07;3.67;;;28.60;90.50;;;;;;5063542;28;20037;-53
2022/07/25 09:51:04;;;;;;;11.23;4.40;;;28.60;90.20;;;;;;5066002;28;20145;-51
2022/07/25 09:53:30;;;;;;;6.38;3.85;;;28.60;90.00;;;;;;5063525;28;20703;-49
2022/07/25 09:55:56;;;;;;;4.53;4.13;;;28.50;88.80;;;;;;5066449;28;20041;-49
2022/07/25 09:58:23;;;;;;;4.00;3.60;;;28.30;88.90;;;;;;5063630;28;20114;-51
2022/07/25 10:00:51;;;;;;;5.63;4.43;;;28.30;89.40;;;;;;5063165;28;20036;-51
2022/07/25 10:03:48;;;;;;;5.57;4.15;;;28.40;89.60;;;;;;5065977;28;20105;-53
2022/07/25 10:06:35;;;;;;;4.88;4.00;;;28.40;88.70;;;;;;5063658;28;20435;-52
2022/07/25 10:09:01;;;;;;;3.85;3.30;;;28.40;89.90;;;;;;5061983;28;20047;-48
2022/07/25 10:11:28;;;;;;;3.58;2.50;;;28.40;88.30;;;;;;5061178;28;20399;-49
2022/07/25 10:13:55;;;;;;;5.80;3.08;;;28.10;87.90;;;;;;5064720;28;20040;-52
2022/07/25 10:16:26;;;;;;;3.95;2.83;;;27.80;87.90;;;;;;5065846;28;20036;-50
2022/07/25 10:18:57;;;;;;;4.03;2.58;;;27.50;90.60;;;;;;5065853;28;20056;-51
2022/07/25 10:21:24;;;;;;;3.53;2.42;;;27.10;91.10;;;;;;5065615;28;20527;-51
2022/07/25 10:24:05;;;;;;;2.30;2.10;;;26.90;91.20;;;;;;5066925;28;20484;-50
2022/07/25 10:26:32;;;;;;;3.05;2.72;;;26.60;92.20;;;;;;5065522;28;20048;-49
2022/07/25 10:28:58;;;;;;;2.80;2.60;;;26.50;92.20;;;;;;5059187;28;20451;-50
2022/07/25 10:31:24;;;;;;;3.03;2.73;;;26.40;92.00;;;;;;5059884;28;20130;-52
2022/07/25 10:33:52;;;;;;;2.70;2.50;;;26.50;92.30;;;;;;5060004;28;20044;-54
2022/07/25 10:36:19;;;;;;;3.65;2.90;;;26.50;92.80;;;;;;5058895;28;20132;-51
2022/07/25 10:38:45;;;;;;;7.18;2.10;;;26.70;92.70;;;;;;5058807;28;20043;-51
2022/07/25 10:41:12;;;;;;;2.85;2.40;;;27.00;93.00;;;;;;5057462;28;20049;-51
2022/07/25 10:43:39;;;;;;;2.42;2.13;;;27.10;92.50;;;;;;5057977;28;21030;-50
2022/07/25 10:46:19;;;;;;;3.45;1.88;;;27.40;92.10;;;;;;5059100;28;20055;-53
2022/07/25 10:48:57;;;;;;;3.72;1.80;;;28.10;92.80;;;;;;5057833;28;20045;-51
2022/07/25 10:51:27;;;;;;;2.70;1.75;;;28.30;91.80;;;;;;5055784;28;20047;-49
2022/07/25 10:53:52;;;;;;;2.13;1.95;;;28.40;91.10;;;;;;5056104;28;20189;-52
2022/07/25 10:56:21;;;;;;;2.33;1.90;;;28.30;90.90;;;;;;5054202;28;20048;-50
2022/07/25 10:58:55;;;;;;;4.88;1.83;;;28.40;91.50;;;;;;5058988;28;20040;-53
2022/07/25 11:01:25;;;;;;;2.58;2.38;;;28.80;91.60;;;;;;5056356;28;21169;-53
2022/07/25 11:03:53;;;;;;;3.85;2.63;;;29.10;91.20;;;;;;5056076;28;20144;-51
2022/07/25 11:06:32;;;;;;;6.18;2.80;;;29.10;90.70;;;;;;5054953;28;20056;-50
2022/07/25 11:08:59;;;;;;;4.22;2.65;;;28.90;90.80;;;;;;5055329;28;20049;-54
2022/07/25 11:11:33;;;;;;;2.95;2.20;;;28.70;91.10;;;;;;5037919;28;20068;-51
2022/07/25 11:14:00;;;;;;;3.67;1.90;;;28.40;91.00;;;;;;5058241;28;20112;-50
2022/07/25 11:16:26;;;;;;;3.60;1.33;;;28.20;91.50;;;;;;5054865;28;20060;-50
2022/07/25 11:18:53;;;;;;;5.07;1.58;;;27.80;91.90;;;;;;5054368;28;20559;-53
2022/07/25 11:21:19;;;;;;;;;;;27.30;93.80;;;;;;5054590;28;20148;-53
2022/07/25 11:23:52;;;;;;;3.70;1.73;;;27.30;94.60;;;;;;5054226;28;19921;-53
2022/07/25 11:26:18;;;;;;;2.97;1.55;;;27.20;94.50;;;;;;5055315;28;20045;-53
2022/07/25 11:28:47;;;;;;;2.58;1.35;;;27.00;94.40;;;;;;5054357;28;20060;-51
2022/07/25 11:31:13;;;;;;;2.10;1.30;;;26.90;94.40;;;;;;5054883;28;20055;-54
2022/07/25 11:33:41;;;;;;;2.03;1.30;;;27.00;94.50;;;;;;5053838;28;21827;-54
2022/07/25 11:36:09;;;;;;;4.65;1.60;;;27.10;95.70;;;;;;5054700;28;20048;-53
2022/07/25 11:38:36;;;;;;;2.00;1.38;;;27.20;94.70;;;;;;5055101;28;20052;-51
2022/07/25 11:41:02;;;;;;;2.33;1.70;;;27.40;94.80;;;;;;5036043;28;20052;-52
2022/07/25 11:43:28;;;;;;;3.67;1.40;;;27.70;94.30;;;;;;5055426;28;20053;-50
2022/07/25 11:45:57;;;;;;;1.60;1.50;;;27.80;94.90;;;;;;5053382;28;20133;-52
2022/07/25 11:48:33;;;;;;;3.42;1.50;;;27.70;94.20;;;;;;5051851;28;20510;-49
2022/07/25 11:51:17;;;;;;;8.20;1.77;;;28.00;95.20;;;;;;5059263;28;20068;-50
2022/07/25 11:53:49;;;;;;;6.03;1.83;;;27.70;93.90;;;;;;5056145;28;20040;-52
2022/07/25 11:56:19;;;;;;;4.07;1.70;;;27.40;94.00;;;;;;5060468;28;20036;-53
2022/07/25 11:59:00;;;;;;;5.47;1.85;;;27.40;94.30;;;;;;5059411;28;20132;-53
2022/07/25 12:01:38;;;;;;;3.85;1.80;;;27.30;94.50;;;;;;5062959;28;20169;-51
2022/07/25 12:04:11;;;;;;;3.80;1.90;;;27.40;95.30;;;;;;5061125;28;20426;-51
2022/07/25 12:06:38;;;;;;;3.50;2.03;;;27.40;95.50;;;;;;5061731;28;20050;-53
2022/07/25 12:09:11;;;;;;;5.10;2.08;;;27.40;95.30;;;;;;5059681;28;20044;-54
2022/07/25 12:11:37;;;;;;;7.43;2.33;;;27.50;95.50;;;;;;5063935;28;20040;-49
2022/07/25 12:14:04;;;;;;;4.43;2.38;;;27.30;96.40;;;;;;5062987;28;20499;-51
2022/07/25 12:16:31;;;;;;;7.07;2.45;;;27.70;96.60;;;;;;5060363;28;20048;-52
2022/07/25 12:18:57;;;;;;;5.10;2.30;;;27.90;97.00;;;;;;5063135;28;20636;-49
2022/07/25 12:21:23;;;;;;;7.25;2.92;;;27.90;96.30;;;;;;5063313;28;20143;-53
2022/07/25 12:23:48;;;;;;;8.40;2.50;;;28.10;95.30;;;;;;5059183;28;20534;-52
2022/07/25 12:26:14;;;;;;;4.68;1.73;;;27.90;94.90;;;;;;5056692;28;20045;-52
2022/07/25 12:28:40;;;;;;;3.95;1.80;;;27.90;94.70;;;;;;5063696;28;20873;-53
2022/07/25 12:31:06;;;;;;;3.58;2.05;;;28.30;95.20;;;;;;5063133;28;20071;-53
2022/07/25 12:33:32;;;;;;;4.13;1.70;;;28.20;93.80;;;;;;5062263;28;20040;-54
2022/07/25 12:35:59;;;;;;;3.53;1.73;;;27.90;93.50;;;;;;5060980;28;20399;-52
2022/07/25 12:38:24;;;;;;;4.55;1.90;;;27.70;93.90;;;;;;5062334;28;20051;-48
2022/07/25 12:40:51;;;;;;;5.40;1.92;;;27.50;93.90;;;;;;5067456;28;20060;-49
2022/07/25 12:43:16;;;;;;;4.50;1.95;;;27.20;94.10;;;;;;5068150;28;20044;-53
2022/07/25 12:45:42;;;;;;;5.32;1.85;;;27.10;94.30;;;;;;5067156;28;20170;-54